Rhoose, United Kingdom
Current Conditions -  °F | °C
As of 7:50 AM on Wednesday 26 Nov 2014 (Local Time) from EGFF Reporting Station
Haze Haze  
Wind Chill: 43°   Ceiling: 1100
Heat Index: 43°   Visibility: 2mi
Dew Point: 43°   Wind: 3mph
Humidity: 100%   Direction: 340°NNW
Pressure: 29.88"   Gusts: NA
Location:  51.39°N, 3.35°W
Report Text: EGFF 260750Z AUTO 34003KT 3300 BR OVC011 06/06 Q1012
Loading
Personal Weather Stations






























Interactive Weather Map New forecast layout! Learn more

10-Day Weather Forecast

Advertisements
Track Severe Weather on mobile